createdAt,value
2023-01-19T00:00:05.564Z,7.93
2023-01-19T00:02:32.342Z,6.43
2023-01-19T00:04:59.478Z,8.15
2023-01-19T00:07:26.183Z,7.63
2023-01-19T00:09:52.810Z,11.85
2023-01-19T00:12:19.420Z,8.48
2023-01-19T00:14:46.024Z,7.20
2023-01-19T00:17:12.792Z,12.43
2023-01-19T00:19:39.439Z,9.93
2023-01-19T00:22:06.151Z,8.02
2023-01-19T00:24:33.323Z,7.40
2023-01-19T00:27:01.623Z,8.00
2023-01-19T00:29:30.833Z,7.40
2023-01-19T00:31:57.452Z,8.48
2023-01-19T00:34:24.120Z,7.47
2023-01-19T00:36:50.689Z,6.90
2023-01-19T00:39:17.321Z,6.77
2023-01-19T00:42:02.520Z,6.07
2023-01-19T00:44:29.201Z,6.95
2023-01-19T00:46:55.870Z,8.52
2023-01-19T00:49:22.569Z,10.05
2023-01-19T00:51:49.232Z,7.67
2023-01-19T00:54:15.869Z,7.22
2023-01-19T00:56:42.508Z,12.65
2023-01-19T00:59:10.576Z,6.75
2023-01-19T01:01:44.962Z,6.65
2023-01-19T01:04:13.639Z,7.50
2023-01-19T01:06:40.409Z,8.32
2023-01-19T01:09:11.981Z,7.97
2023-01-19T01:11:42.632Z,6.20
2023-01-19T01:14:11.687Z,5.63
2023-01-19T01:16:38.544Z,5.20
2023-01-19T01:19:05.251Z,6.40
2023-01-19T01:21:32.018Z,6.50
2023-01-19T01:23:58.628Z,6.30
2023-01-19T01:26:27.076Z,6.68
2023-01-19T01:28:54.460Z,5.30
2023-01-19T01:31:21.241Z,6.20
2023-01-19T01:33:47.907Z,8.02
2023-01-19T01:36:14.684Z,7.47
2023-01-19T01:38:42.514Z,7.18
2023-01-19T01:41:09.265Z,5.97
2023-01-19T01:43:45.509Z,6.60
2023-01-19T01:46:15.300Z,6.95
2023-01-19T01:48:46.600Z,6.43
2023-01-19T01:51:25.900Z,6.35
2023-01-19T01:54:14.780Z,6.77
2023-01-19T01:56:47.038Z,5.55
2023-01-19T01:59:34.699Z,6.15
2023-01-19T02:02:41.571Z,5.60
2023-01-19T02:05:13.010Z,5.57
2023-01-19T02:08:14.573Z,5.10
2023-01-19T02:11:01.687Z,4.97
2023-01-19T02:13:30.643Z,5.55
2023-01-19T02:16:02.994Z,5.20
2023-01-19T02:18:31.411Z,6.07
2023-01-19T02:20:58.019Z,5.27
2023-01-19T02:23:52.359Z,5.70
2023-01-19T02:26:34.321Z,5.43
2023-01-19T02:29:04.640Z,5.50
2023-01-19T02:31:33.762Z,5.53
2023-01-19T02:34:01.908Z,4.53
2023-01-19T02:36:36.908Z,4.97
2023-01-19T02:39:05.969Z,5.07
2023-01-19T02:41:39.636Z,4.50
2023-01-19T02:44:10.068Z,4.68
2023-01-19T02:46:37.921Z,4.10
2023-01-19T02:49:04.588Z,4.30
2023-01-19T02:51:31.307Z,4.97
2023-01-19T02:54:14.627Z,5.20
2023-01-19T02:56:53.340Z,5.63
2023-01-19T02:59:34.110Z,4.23
2023-01-19T03:02:09.006Z,4.30
2023-01-19T03:05:03.471Z,4.47
2023-01-19T03:07:52.155Z,4.35
2023-01-19T03:11:00.937Z,4.50
2023-01-19T03:13:31.208Z,4.03
2023-01-19T03:16:22.528Z,4.32
2023-01-19T03:19:01.925Z,4.53
2023-01-19T03:21:30.282Z,4.43
2023-01-19T03:24:01.877Z,4.63
2023-01-19T03:26:32.466Z,4.90
2023-01-19T03:29:02.235Z,4.10
2023-01-19T03:31:32.030Z,4.75
2023-01-19T03:34:03.788Z,4.78
2023-01-19T03:36:34.860Z,5.75
2023-01-19T03:39:04.515Z,5.63
2023-01-19T03:41:34.292Z,5.10
2023-01-19T03:44:01.664Z,4.78
2023-01-19T03:46:28.783Z,5.82
2023-01-19T03:48:57.376Z,5.35
2023-01-19T03:51:24.322Z,5.00
2023-01-19T03:53:51.012Z,5.22
2023-01-19T03:56:23.885Z,5.60
2023-01-19T03:58:51.982Z,5.53
2023-01-19T04:01:22.922Z,5.22
2023-01-19T04:03:51.124Z,5.13
2023-01-19T04:06:19.217Z,5.25
2023-01-19T04:08:48.686Z,5.38
2023-01-19T04:11:15.580Z,5.57
2023-01-19T04:13:42.246Z,5.43
2023-01-19T04:16:10.061Z,5.33
2023-01-19T04:18:36.767Z,5.53
2023-01-19T04:21:05.975Z,5.30
2023-01-19T04:23:33.788Z,5.00
2023-01-19T04:26:02.928Z,4.97
2023-01-19T04:28:30.063Z,5.33
2023-01-19T04:30:57.198Z,5.30
2023-01-19T04:33:24.380Z,6.10
2023-01-19T04:35:54.361Z,5.22
2023-01-19T04:38:22.009Z,5.88
2023-01-19T04:40:49.994Z,5.73
2023-01-19T04:43:17.036Z,4.93
2023-01-19T04:45:46.855Z,5.32
2023-01-19T04:48:14.541Z,5.15
2023-01-19T04:50:41.986Z,5.20
2023-01-19T04:53:08.966Z,5.03
2023-01-19T04:55:37.545Z,5.40
2023-01-19T04:58:04.189Z,6.45
2023-01-19T05:00:32.129Z,5.22
2023-01-19T05:02:59.255Z,6.10
2023-01-19T05:05:27.309Z,5.77
2023-01-19T05:07:54.755Z,8.13
2023-01-19T05:10:21.875Z,6.63
2023-01-19T05:12:48.713Z,6.30
2023-01-19T05:15:15.431Z,5.32
2023-01-19T05:17:43.027Z,5.60
2023-01-19T05:20:13.365Z,6.22
2023-01-19T05:22:41.633Z,5.72
2023-01-19T05:25:08.804Z,6.32
2023-01-19T05:27:36.920Z,7.50
2023-01-19T05:30:05.419Z,6.90
2023-01-19T05:32:32.537Z,6.05
2023-01-19T05:34:59.945Z,8.63
2023-01-19T05:37:26.606Z,7.45
2023-01-19T05:39:53.849Z,8.30
2023-01-19T05:42:21.023Z,11.17
2023-01-19T05:44:47.630Z,6.30
2023-01-19T05:47:14.272Z,6.47
2023-01-19T05:49:40.919Z,6.35
2023-01-19T05:52:07.570Z,5.75
2023-01-19T05:54:34.455Z,7.83
2023-01-19T05:57:01.612Z,7.10
2023-01-19T05:59:28.295Z,7.05
2023-01-19T06:01:55.224Z,6.32
2023-01-19T06:04:22.072Z,7.25
2023-01-19T06:06:49.556Z,7.80
2023-01-19T06:09:17.310Z,6.80
2023-01-19T06:11:44.865Z,8.05
2023-01-19T06:14:11.686Z,7.95
2023-01-19T06:16:38.727Z,7.70
2023-01-19T06:19:05.528Z,8.90
2023-01-19T06:21:32.527Z,8.45
2023-01-19T06:23:59.174Z,8.85
2023-01-19T06:26:26.234Z,15.45
2023-01-19T06:28:53.055Z,12.32
2023-01-19T06:31:19.816Z,9.77
2023-01-19T06:33:46.789Z,7.95
2023-01-19T06:36:13.756Z,7.13
2023-01-19T06:38:40.421Z,7.13
2023-01-19T06:41:07.184Z,7.53
2023-01-19T06:43:33.929Z,7.57
2023-01-19T06:46:00.752Z,7.07
2023-01-19T06:48:27.997Z,7.82
2023-01-19T06:50:55.873Z,6.93
2023-01-19T06:53:23.373Z,7.70
2023-01-19T06:55:50.042Z,6.83
2023-01-19T06:58:17.168Z,6.10
2023-01-19T07:00:43.932Z,6.03
2023-01-19T07:03:19.678Z,6.30
2023-01-19T07:05:46.412Z,7.10
2023-01-19T07:08:13.064Z,7.30
2023-01-19T07:11:27.113Z,8.75
2023-01-19T07:13:26.297Z,7.05
2023-01-19T07:15:52.995Z,6.90
2023-01-19T07:18:19.657Z,8.27
2023-01-19T07:20:49.128Z,7.30
2023-01-19T07:23:16.245Z,6.90
2023-01-19T07:25:46.610Z,6.45
2023-01-19T07:28:15.645Z,6.50
2023-01-19T07:30:43.722Z,6.90
2023-01-19T07:33:10.418Z,6.13
2023-01-19T07:35:37.113Z,6.20
2023-01-19T07:38:04.313Z,7.28
2023-01-19T07:40:30.997Z,6.68
2023-01-19T07:42:57.680Z,7.25
2023-01-19T07:45:24.321Z,7.23
2023-01-19T07:47:51.117Z,7.93
2023-01-19T07:50:21.172Z,7.70
2023-01-19T07:52:50.676Z,8.43
2023-01-19T07:55:17.634Z,10.20
2023-01-19T07:57:44.565Z,9.13
2023-01-19T08:00:14.323Z,8.45
2023-01-19T08:02:41.316Z,8.70
2023-01-19T08:05:08.325Z,8.38
2023-01-19T08:07:35.008Z,8.77
2023-01-19T08:10:01.694Z,9.63
2023-01-19T08:12:28.313Z,10.13
2023-01-19T08:14:54.918Z,8.73
2023-01-19T08:17:21.643Z,8.90
2023-01-19T08:19:48.243Z,8.35
2023-01-19T08:22:14.969Z,9.30
2023-01-19T08:24:41.635Z,10.18
2023-01-19T08:27:09.886Z,9.70
2023-01-19T08:29:36.674Z,9.35
2023-01-19T08:32:03.505Z,8.73
2023-01-19T08:34:31.086Z,8.60
2023-01-19T08:36:58.465Z,9.15
2023-01-19T08:39:25.944Z,9.65
2023-01-19T08:41:52.806Z,9.20
2023-01-19T08:44:19.941Z,8.90
2023-01-19T08:46:47.530Z,7.67
2023-01-19T08:49:14.390Z,7.80
2023-01-19T08:51:41.061Z,7.30
2023-01-19T08:54:07.729Z,8.02
2023-01-19T08:56:34.354Z,7.20
2023-01-19T08:59:09.164Z,7.30
2023-01-19T09:01:37.297Z,7.82
2023-01-19T09:04:04.217Z,11.18
2023-01-19T09:06:30.942Z,10.70
2023-01-19T09:08:57.778Z,9.52
2023-01-19T09:11:24.483Z,8.63
2023-01-19T09:13:51.407Z,7.47
2023-01-19T09:16:18.113Z,7.38
2023-01-19T09:18:45.987Z,6.53
2023-01-19T09:21:13.778Z,5.45
2023-01-19T09:23:40.705Z,5.67
2023-01-19T09:26:07.537Z,5.28
2023-01-19T09:28:34.736Z,6.13
2023-01-19T09:31:06.742Z,5.88
2023-01-19T09:33:34.032Z,5.68
2023-01-19T09:36:02.037Z,5.47
2023-01-19T09:38:31.582Z,5.95
2023-01-19T09:40:59.598Z,6.40
2023-01-19T09:43:47.779Z,6.97
2023-01-19T09:46:40.484Z,7.85
2023-01-19T09:49:38.820Z,7.13
2023-01-19T09:52:05.806Z,6.93
2023-01-19T09:54:44.402Z,8.80
2023-01-19T09:57:12.327Z,5.38
2023-01-19T09:59:39.685Z,7.18
2023-01-19T10:02:33.999Z,6.63
2023-01-19T10:05:05.339Z,6.40
2023-01-19T10:07:34.875Z,6.80
2023-01-19T10:10:28.674Z,7.10
2023-01-19T10:13:35.321Z,6.78
2023-01-19T10:16:39.610Z,8.93
2023-01-19T10:19:20.675Z,7.05
2023-01-19T10:21:50.074Z,8.20
2023-01-19T10:24:22.674Z,7.93
2023-01-19T10:26:52.716Z,8.25
2023-01-19T10:29:30.416Z,8.00
2023-01-19T10:32:19.849Z,8.60
2023-01-19T10:34:47.936Z,8.13
2023-01-19T10:37:17.603Z,8.50
2023-01-19T10:39:46.786Z,8.82
2023-01-19T10:42:16.164Z,8.10
2023-01-19T10:44:45.257Z,8.10
2023-01-19T10:47:19.891Z,7.43
2023-01-19T10:49:48.183Z,7.35
2023-01-19T10:52:33.007Z,7.05
2023-01-19T10:55:03.053Z,6.43
2023-01-19T10:57:37.713Z,6.18
2023-01-19T11:00:06.877Z,7.00
2023-01-19T11:02:33.778Z,6.70
2023-01-19T11:05:19.336Z,6.40
2023-01-19T11:07:45.917Z,6.60
2023-01-19T11:10:15.348Z,6.50
2023-01-19T11:12:44.277Z,6.45
2023-01-19T11:15:23.658Z,6.38
2023-01-19T11:17:50.607Z,6.70
2023-01-19T11:20:30.365Z,5.83
2023-01-19T11:23:15.165Z,7.25
2023-01-19T11:25:46.424Z,5.90
2023-01-19T11:28:25.320Z,8.52
2023-01-19T11:30:57.536Z,5.95
2023-01-19T11:33:35.348Z,6.13
2023-01-19T11:36:26.871Z,6.30
2023-01-19T11:39:13.049Z,5.95
2023-01-19T11:41:41.060Z,5.32
2023-01-19T11:44:23.452Z,4.35
2023-01-19T11:46:54.659Z,5.43
2023-01-19T11:49:40.796Z,5.82
2023-01-19T11:52:10.213Z,6.07
2023-01-19T11:54:52.245Z,5.68
2023-01-19T11:57:20.119Z,5.78
2023-01-19T11:59:56.282Z,5.17
2023-01-19T12:02:30.415Z,4.18
2023-01-19T12:05:04.781Z,4.60
2023-01-19T12:07:35.188Z,4.20
2023-01-19T12:10:27.040Z,3.72
2023-01-19T12:12:53.889Z,5.07
2023-01-19T12:15:42.967Z,4.15
2023-01-19T12:18:19.920Z,4.38
2023-01-19T12:20:54.766Z,4.55
2023-01-19T12:23:36.744Z,4.90
2023-01-19T12:26:15.080Z,4.20
2023-01-19T12:28:46.017Z,8.48
2023-01-19T12:31:21.639Z,5.55
2023-01-19T12:33:48.702Z,6.00
2023-01-19T12:36:30.623Z,5.82
2023-01-19T12:39:01.386Z,6.77
2023-01-19T12:41:30.894Z,6.53
2023-01-19T12:44:09.700Z,8.00
2023-01-19T12:46:41.995Z,8.48
2023-01-19T12:49:29.654Z,7.43
2023-01-19T12:52:19.562Z,6.40
2023-01-19T12:55:14.042Z,4.80
2023-01-19T12:57:56.044Z,5.50
2023-01-19T13:00:22.585Z,4.88
2023-01-19T13:03:04.961Z,5.50
2023-01-19T13:05:32.925Z,4.60
2023-01-19T13:08:02.825Z,5.53
2023-01-19T13:10:54.296Z,5.28
2023-01-19T13:13:23.582Z,6.55
2023-01-19T13:15:51.276Z,5.60
2023-01-19T13:18:21.585Z,5.87
2023-01-19T13:20:55.757Z,6.07
2023-01-19T13:23:27.836Z,7.05
2023-01-19T13:26:02.845Z,9.10
2023-01-19T13:28:41.097Z,7.72
2023-01-19T13:31:09.937Z,6.20
2023-01-19T13:33:49.752Z,5.68
2023-01-19T13:36:26.550Z,5.57
2023-01-19T13:38:54.531Z,5.70
2023-01-19T13:41:25.167Z,6.85
2023-01-19T13:44:09.071Z,7.10
2023-01-19T13:46:38.551Z,7.40
2023-01-19T13:49:19.079Z,6.43
2023-01-19T13:51:45.790Z,7.78
2023-01-19T13:54:21.270Z,6.35
2023-01-19T13:56:51.561Z,6.27
2023-01-19T13:59:18.258Z,5.15
2023-01-19T14:01:46.577Z,6.00
2023-01-19T14:04:35.095Z,7.60
2023-01-19T14:07:06.220Z,6.18
2023-01-19T14:09:32.875Z,7.83
2023-01-19T14:12:14.068Z,11.57
2023-01-19T14:14:47.229Z,6.97
2023-01-19T14:17:32.511Z,6.57
2023-01-19T14:20:05.532Z,6.40
2023-01-19T14:22:45.060Z,6.80
2023-01-19T14:25:34.527Z,7.72
2023-01-19T14:28:27.668Z,9.10
2023-01-19T14:31:00.120Z,8.55
2023-01-19T14:33:46.062Z,8.95
2023-01-19T14:36:38.084Z,7.57
2023-01-19T14:39:05.901Z,6.93
2023-01-19T14:41:52.695Z,6.45
2023-01-19T14:44:30.854Z,6.72
2023-01-19T14:46:59.590Z,5.25
2023-01-19T14:49:36.383Z,5.33
2023-01-19T14:52:06.657Z,8.20
2023-01-19T14:54:41.129Z,4.90
2023-01-19T14:57:13.129Z,5.47
2023-01-19T14:59:40.605Z,7.13
2023-01-19T15:02:08.552Z,6.10
2023-01-19T15:04:35.224Z,6.57
2023-01-19T15:07:02.010Z,5.40
2023-01-19T15:09:28.802Z,8.65
2023-01-19T15:11:55.589Z,8.60
2023-01-19T15:14:22.437Z,8.13
2023-01-19T15:16:49.932Z,12.88
2023-01-19T15:19:17.521Z,17.20
2023-01-19T15:21:46.372Z,20.38
2023-01-19T15:24:14.898Z,10.43
2023-01-19T15:26:43.110Z,9.93
2023-01-19T15:29:21.935Z,5.75
2023-01-19T15:31:49.144Z,6.35
2023-01-19T15:34:15.973Z,6.63
2023-01-19T15:36:42.847Z,7.63
2023-01-19T15:39:10.814Z,5.90
2023-01-19T15:41:39.519Z,7.65
2023-01-19T15:44:07.241Z,7.30
2023-01-19T15:46:34.038Z,7.53
2023-01-19T15:49:00.706Z,7.05
2023-01-19T15:51:27.664Z,6.30
2023-01-19T15:53:55.466Z,7.47
2023-01-19T15:56:24.986Z,6.53
2023-01-19T15:58:52.886Z,8.70
2023-01-19T16:01:21.887Z,12.25
2023-01-19T16:03:49.609Z,10.13
2023-01-19T16:06:17.856Z,8.05
2023-01-19T16:08:44.962Z,7.78
2023-01-19T16:11:15.703Z,8.32
2023-01-19T16:13:46.304Z,8.93
2023-01-19T16:16:21.872Z,7.30
2023-01-19T16:18:48.563Z,7.57
2023-01-19T16:21:15.727Z,8.50
2023-01-19T16:23:42.423Z,7.88
2023-01-19T16:26:27.994Z,9.85
2023-01-19T16:29:09.859Z,7.80
2023-01-19T16:31:41.266Z,7.25
2023-01-19T16:34:09.821Z,8.32
2023-01-19T16:36:38.704Z,8.85
2023-01-19T16:39:08.167Z,12.73
2023-01-19T16:41:35.759Z,9.67
2023-01-19T16:44:03.120Z,10.57
2023-01-19T16:46:33.961Z,13.63
2023-01-19T16:49:03.726Z,12.65
2023-01-19T16:51:30.970Z,9.73
2023-01-19T16:53:57.722Z,8.87
2023-01-19T16:56:24.632Z,12.30
2023-01-19T16:58:55.896Z,14.43
2023-01-19T17:01:23.890Z,9.88
2023-01-19T17:03:50.893Z,9.80
2023-01-19T17:06:20.402Z,10.50
2023-01-19T17:08:47.354Z,7.68
2023-01-19T17:11:20.772Z,9.38
2023-01-19T17:13:48.442Z,10.05
2023-01-19T17:16:15.295Z,12.43
2023-01-19T17:18:42.046Z,11.00
2023-01-19T17:21:10.380Z,11.23
2023-01-19T17:23:41.797Z,12.43
2023-01-19T17:26:08.455Z,11.65
2023-01-19T17:28:35.203Z,9.77
2023-01-19T17:31:11.057Z,9.27
2023-01-19T17:33:38.770Z,9.13
2023-01-19T17:36:11.317Z,10.00
2023-01-19T17:38:38.638Z,11.65
2023-01-19T17:41:14.103Z,9.70
2023-01-19T17:43:40.843Z,9.80
2023-01-19T17:46:07.973Z,11.32
2023-01-19T17:48:34.701Z,11.88
2023-01-19T17:51:03.447Z,12.50
2023-01-19T17:53:30.104Z,17.90
2023-01-19T17:56:12.388Z,16.30
2023-01-19T17:58:40.117Z,11.63
2023-01-19T18:01:18.983Z,10.35
2023-01-19T18:03:46.292Z,11.43
2023-01-19T18:06:13.603Z,12.93
2023-01-19T18:08:42.743Z,11.20
2023-01-19T18:11:10.612Z,9.88
2023-01-19T18:13:38.044Z,9.85
2023-01-19T18:16:10.591Z,9.90
2023-01-19T18:18:37.869Z,9.38
2023-01-19T18:21:08.662Z,8.70
2023-01-19T18:23:36.181Z,8.13
2023-01-19T18:26:11.025Z,8.32
2023-01-19T18:28:37.945Z,8.48
2023-01-19T18:31:09.592Z,9.77
2023-01-19T18:33:37.079Z,11.63
2023-01-19T18:36:04.361Z,12.82
2023-01-19T18:38:31.483Z,20.55
2023-01-19T18:41:13.703Z,20.35
2023-01-19T18:43:40.480Z,11.45
2023-01-19T18:46:07.469Z,8.07
2023-01-19T18:48:34.784Z,8.43
2023-01-19T18:51:06.830Z,8.20
2023-01-19T18:53:33.833Z,7.10
2023-01-19T18:56:02.080Z,6.38
2023-01-19T18:58:29.974Z,7.13
2023-01-19T19:00:57.189Z,6.85
2023-01-19T19:03:24.223Z,7.65
2023-01-19T19:05:50.905Z,7.50
2023-01-19T19:08:17.962Z,7.88
2023-01-19T19:10:44.838Z,7.30
2023-01-19T19:13:13.414Z,7.90
2023-01-19T19:15:40.433Z,11.43
2023-01-19T19:18:08.996Z,14.15
2023-01-19T19:20:39.514Z,12.98
2023-01-19T19:23:06.184Z,11.13
2023-01-19T19:25:33.518Z,9.35
2023-01-19T19:28:00.212Z,7.43
2023-01-19T19:30:26.947Z,7.93
2023-01-19T19:32:54.504Z,7.93
2023-01-19T19:35:21.212Z,7.90
2023-01-19T19:37:48.981Z,7.40
2023-01-19T19:40:16.143Z,7.05
2023-01-19T19:42:42.759Z,6.82
2023-01-19T19:45:10.068Z,7.75
2023-01-19T19:47:36.692Z,6.97
2023-01-19T19:50:03.521Z,6.95
2023-01-19T19:52:30.187Z,7.78
2023-01-19T19:54:56.888Z,10.20
2023-01-19T19:57:24.180Z,10.02
2023-01-19T19:59:50.773Z,9.50
2023-01-19T20:02:17.506Z,9.55
2023-01-19T20:04:45.007Z,9.38
2023-01-19T20:07:11.870Z,11.15
2023-01-19T20:09:38.828Z,12.82
2023-01-19T20:12:05.910Z,11.73
2023-01-19T20:14:32.588Z,12.50
2023-01-19T20:16:59.337Z,12.68
2023-01-19T20:19:26.257Z,12.05
2023-01-19T20:21:52.917Z,9.48
2023-01-19T20:24:20.505Z,16.27
2023-01-19T20:26:50.397Z,25.40
2023-01-19T20:29:18.084Z,17.77
2023-01-19T20:31:51.194Z,17.48
2023-01-19T20:34:20.283Z,18.35
2023-01-19T20:36:49.698Z,13.07
2023-01-19T20:39:19.337Z,14.15
2023-01-19T20:41:46.091Z,11.70
2023-01-19T20:44:15.269Z,10.90
2023-01-19T20:46:43.715Z,11.45
2023-01-19T20:49:10.499Z,13.03
2023-01-19T20:51:39.771Z,13.20
2023-01-19T20:54:06.453Z,16.73
2023-01-19T20:56:33.073Z,14.52
2023-01-19T20:58:59.771Z,12.30
2023-01-19T21:01:26.535Z,9.10
2023-01-19T21:03:53.552Z,8.55
2023-01-19T21:06:21.360Z,9.02
2023-01-19T21:08:51.625Z,12.82
2023-01-19T21:11:20.886Z,11.20
2023-01-19T21:13:48.682Z,10.93
2023-01-19T21:16:16.211Z,10.98
2023-01-19T21:18:43.095Z,11.23
2023-01-19T21:21:28.398Z,10.45
2023-01-19T21:23:57.384Z,10.57
2023-01-19T21:26:24.155Z,10.63
2023-01-19T21:28:50.860Z,12.10
2023-01-19T21:31:17.830Z,10.95
2023-01-19T21:33:44.642Z,10.82
2023-01-19T21:36:11.373Z,11.18
2023-01-19T21:38:38.657Z,12.20
2023-01-19T21:41:12.032Z,17.05
2023-01-19T21:43:41.850Z,17.20
2023-01-19T21:46:19.061Z,14.38
2023-01-19T21:48:46.751Z,14.15
2023-01-19T21:51:14.871Z,17.67
2023-01-19T21:53:42.230Z,14.95
2023-01-19T21:56:10.001Z,14.88
2023-01-19T21:58:37.028Z,13.50
2023-01-19T22:01:06.955Z,13.70
2023-01-19T22:03:33.827Z,12.70
2023-01-19T22:06:09.307Z,10.20
2023-01-19T22:08:36.332Z,12.48
2023-01-19T22:11:08.032Z,12.50
2023-01-19T22:13:35.545Z,11.60
2023-01-19T22:16:04.068Z,11.00
2023-01-19T22:18:30.841Z,11.10
2023-01-19T22:21:16.881Z,11.55
2023-01-19T22:23:44.085Z,11.00
2023-01-19T22:26:11.846Z,11.70
2023-01-19T22:28:38.948Z,12.73
2023-01-19T22:31:11.383Z,12.40
2023-01-19T22:33:38.867Z,10.32
2023-01-19T22:36:22.110Z,12.15
2023-01-19T22:38:53.439Z,12.52
2023-01-19T22:41:23.007Z,11.57
2023-01-19T22:43:52.134Z,12.98
2023-01-19T22:46:20.751Z,14.60
2023-01-19T22:48:48.978Z,11.73
2023-01-19T22:51:17.325Z,8.48
2023-01-19T22:53:44.054Z,6.50
2023-01-19T22:56:12.790Z,8.02
2023-01-19T22:58:40.504Z,9.63
2023-01-19T23:01:16.192Z,9.77
2023-01-19T23:03:43.010Z,10.65
2023-01-19T23:06:15.895Z,9.23
2023-01-19T23:08:43.442Z,9.32
2023-01-19T23:11:13.387Z,9.85
2023-01-19T23:13:40.850Z,8.00
2023-01-19T23:16:08.679Z,7.05
2023-01-19T23:18:35.851Z,6.37
2023-01-19T23:21:03.757Z,7.65
2023-01-19T23:23:30.642Z,7.18
2023-01-19T23:26:06.077Z,7.07
2023-01-19T23:28:34.213Z,8.23
2023-01-19T23:31:01.449Z,8.00
2023-01-19T23:33:28.176Z,7.97
2023-01-19T23:35:55.632Z,8.70
2023-01-19T23:38:22.652Z,8.35
2023-01-19T23:40:49.436Z,6.60
2023-01-19T23:43:16.105Z,6.10
2023-01-19T23:45:42.778Z,4.22
2023-01-19T23:48:09.489Z,4.05
2023-01-19T23:50:39.661Z,3.40
2023-01-19T23:53:06.868Z,3.25
2023-01-19T23:55:33.491Z,2.40
2023-01-19T23:58:00.186Z,2.85
